Abraham Lincoln Capital Airport
KSPI : now visible

Airfield :











YOU CAN JOIN US ON...

 
LOGIN :

Register | Disclaimer

   EN    FR    IT 

 









Legend :    VFR   Marginal VFR   IFR   Intensive IFR   Very Intensive IFR
Visi :
Ceiling :
>= 8 km
>= 3000ft
5 to 8 km
1000 to 3000 ft
1500m to 5 km
500 to 1000 ft
800 to 1500m
200 to 500 ft
< 800m
< 200 ft
Symbols :   Thunderstorms  Fog  Heavy snow  Heavy precipitations  Wind > 20 kt






- Airport Elevation : 598 ft
- IATA code : SPI


KSPI - Abraham Lincoln Capital

CURRENT METAR :
  • 162152Z 09007KT 6SM HZ CLR 05/M01 A3023 RMK AO2 SLP244 T00501011

EXPIRED METARs :
  • 162052Z 09005KT 7SM CLR 07/M01 A3025 RMK AO2 SLP248 T00721011 56023
  • 161952Z 09006KT 6SM HZ CLR 07/M01 A3026 RMK AO2 SLP253 T00721006

TAF KSPI
Valid from the 16 at 18:00 until the 17 at 18:00 UTC


162032Z 1618/1718 11007KT P6SM SCT250
FM170900 14004KT P6SM BKN150
FM171500 18007KT P6SM VCSH BKN040



MET'MAP, your aeronautical weather chart ! - Copyright ORBIFLY December 2007 - Disclaimer

ORBIFLY MET'MAP TEAM :

Programming & Development : Alexandra Zaïnal
Concept & Development : Baudouin d'Aumeries
Co-Development & Prog : Marc-Olivier Méhu
Technical & hardware support : Manuel Goepfert

Contact : metmap@orbifly.com




SOURCES & CREDITS :

   NOAA       Earth
Advisory